< < Back
Terminal Aerodrome Forecast


Current Version              Previous Versions:   1  2  3  4  5  6  7  8  9  

Terminal Aerodrome Forecast

112
FTUS42 KFFC 291100
TAFPDK
TAF
KPDK 291120Z 2912/3012 33006KT P6SM SKC
     FM291600 32008G16KT P6SM SCT050
     FM300000 32005KT P6SM SKC=

Latest METAR

243
SAUS70 KWBC 300900 RRL
MTRPDK
METAR KPDK 300853Z AUTO 00000KT 10SM CLR 15/11 A3003 RMK AO2 SLP157
T01500106 56002


USA.gov is the U.S. government's official web portal to all federal, state and local government web resources and services.